• Join FlightAware (Why Join?)
  • Login
  • US Flag 
10:06AM EDT


 

Airport Tracker/Info


-or-


 

Live Flight TrackerFlight Track Log ✈ JBU732 ✈ 12-Jun-2013 ✈ TJBQ / BQN - KMCO

Flight Track Log - Related Links

Times and Time Zones

All times are in EDT time to prevent confusion due to time zone crossing. See the JBU732 flight status page for this flight to view local times or setup timezone preferences in your user account.

Time Position Orientation Groundspeed Altitude Reporting Facility
EDT Latitude Longitude Course Direction KTS MPH feet Rate Location/Type
11:19AM 18.5333 -67.1333 309° West 240 276 2,400  Level San Juan Center
11:20AM 18.6984 -67.3747 311° West  Level FlightAware Approximate
11:21AM 18.7722 -67.4750 305° West  Level FlightAware Approximate
11:22AM 18.8437 -67.5771 317° Northwest  Level FlightAware Approximate
11:23AM 18.9211 -67.6746 309° West  Level FlightAware Approximate
11:24AM 18.9976 -67.7729 309° West  Level FlightAware Approximate
11:24AM 18.8800 -67.6160 309° West 395 455 16,300  Level FlightAware
11:25AM 18.9320 -67.6860 308° West 395 455 16,900 360 Climbing FlightAware
11:26AM 18.9790 -67.7500 308° West 395 455 16,900  Level FlightAware
11:27AM 19.0350 -67.8250 308° West 395 455 16,900  Level FlightAware
11:28AM 19.0670 -67.8690 308° West 395 455 16,900  Level FlightAware
11:28AM 19.1120 -67.9300 308° West 395 455 16,900 3,660 Level FlightAware
11:30AM 19.2167 -68.0833 308° West 420 483 24,200 3,840 Climbing San Juan Center
11:31AM 19.3000 -68.1833 311° West 430 495 25,500 1,020 Climbing San Juan Center
11:32AM 19.3667 -68.2833 305° West 440 506 26,300 900 Climbing San Juan Center
11:33AM 19.4500 -68.3833 311° West 450 518 27,300 900 Climbing San Juan Center
11:34AM 19.5333 -68.5000 307° West 460 529 28,200 960 Climbing San Juan Center
11:35AM 19.6631 -68.6911 306° West 462 532 30,000 1,140 Climbing Miami Center
11:36AM 19.7414 -68.7986 308° West 462 532 31,300 1,080 Climbing Miami Center
11:37AM 19.8156 -68.9067 306° West 462 532 32,200 840 Climbing Miami Center
11:38AM 19.8956 -69.0097 310° West 462 532 33,000 900 Climbing Miami Center
11:39AM 19.9617 -69.1250 301° West 462 532 34,000 480 Climbing Miami Center
11:40AM 20.0294 -69.2336 304° West 456 525 34,000  Level Miami Center
11:41AM 20.0972 -69.3444 303° West 451 519 34,000  Level Miami Center
11:42AM 20.1650 -69.4531 304° West 446 513 34,000  Level Miami Center
11:43AM 20.2308 -69.5664 302° West 446 513 34,000  Level Miami Center
11:44AM 20.3003 -69.6733 305° West 440 506 34,000  Level Miami Center
11:45AM 20.3658 -69.7847 302° West 440 506 34,000  Level Miami Center
11:46AM 20.4331 -69.8917 304° West 440 506 34,000  Level Miami Center
11:47AM 20.4983 -70.0011 303° West 440 506 34,000  Level Miami Center
11:48AM 20.5656 -70.1106 303° West 440 506 34,000  Level Miami Center
11:49AM 20.6331 -70.2225 303° West 440 506 34,000  Level Miami Center
11:50AM 20.6981 -70.3300 303° West 439 505 34,000  Level Miami Center
11:51AM 20.7631 -70.4397 302° West 439 505 34,000  Level Miami Center
11:52AM 20.8347 -70.5606 302° West 439 505 34,000  Level Miami Center
11:53AM 20.8994 -70.6686 303° West 439 505 34,000  Level Miami Center
11:54AM 20.9664 -70.7764 304° West 439 505 34,000  Level Miami Center
11:55AM 21.0311 -70.8869 302° West 439 505 34,000  Level Miami Center
11:56AM 21.0958 -70.9950 303° West 439 505 34,000  Level Miami Center
11:57AM 21.1583 -71.1058 301° West 439 505 34,000  Level Miami Center
11:58AM 21.2250 -71.2164 303° West 439 505 34,000  Level Miami Center
11:59AM 21.2914 -71.3269 303° West 439 505 34,000  Level Miami Center
12:00PM 21.3561 -71.4400 302° West 439 505 34,000  Level Miami Center
12:01PM 21.4222 -71.5467 304° West 439 505 34,000  Level Miami Center
12:02PM 21.4886 -71.6578 303° West 439 505 34,000  Level Miami Center
12:03PM 21.5397 -71.7472 302° West 439 505 34,000  Level Miami Center
12:04PM 21.6106 -71.8672 302° West 439 505 34,000  Level Miami Center
12:05PM 21.6767 -71.9806 302° West 439 505 34,000  Level Miami Center
12:06PM 21.7408 -72.0922 302° West 439 505 34,000  Level Miami Center
12:07PM 21.8069 -72.2061 302° West 444 511 34,000  Level Miami Center
12:08PM 21.8728 -72.3178 302° West 444 511 34,000  Level Miami Center
12:09PM 21.9389 -72.4319 302° West 444 511 34,000  Level Miami Center
12:10PM 22.0025 -72.5461 301° West 439 505 34,000  Level Miami Center
12:11PM 22.0683 -72.6581 302° West 439 505 34,000  Level Miami Center
12:12PM 22.1342 -72.7703 302° West 439 505 34,000  Level Miami Center
12:13PM 22.1975 -72.8850 301° West 439 505 34,000  Level Miami Center
12:14PM 22.2633 -72.9997 302° West 439 505 34,000  Level Miami Center
12:15PM 22.3308 -73.1144 302° West 439 505 34,000  Level Miami Center
12:16PM 22.3900 -73.2317 299° West 439 505 34,000  Level Miami Center
12:17PM 22.4575 -73.3444 303° West 444 511 34,000  Level Miami Center
12:18PM 22.5186 -73.4594 300° West 444 511 34,000  Level Miami Center
12:19PM 22.5858 -73.5725 303° West 439 505 34,000  Level Miami Center
12:20PM 22.6508 -73.6833 302° West 439 505 34,000  Level Miami Center
12:21PM 22.7117 -73.8033 299° West 445 512 34,000  Level Miami Center
12:22PM 22.7767 -73.9144 302° West 445 512 34,000  Level Miami Center
12:23PM 22.8414 -74.0303 301° West 445 512 34,000  Level Miami Center
12:24PM 22.9064 -74.1439 302° West 440 506 34,000  Level Miami Center
12:25PM 22.9708 -74.2553 302° West 440 506 34,000  Level Miami Center
12:26PM 23.0314 -74.3692 300° West 440 506 34,000  Level Miami Center
12:27PM 23.0939 -74.4831 301° West 440 506 34,000  Level Miami Center
12:28PM 23.1603 -74.5947 303° West 440 506 34,000  Level Miami Center
12:29PM 23.2289 -74.7178 301° West 440 506 34,000  Level Miami Center
12:30PM 23.2911 -74.8322 301° West 440 506 34,000  Level Miami Center
12:31PM 23.3553 -74.9467 301° West 440 506 34,000  Level Miami Center
12:32PM 23.4194 -75.0633 301° West 440 506 34,000  Level Miami Center
12:33PM 23.4833 -75.1781 301° West 440 506 34,000  Level Miami Center
12:34PM 23.5411 -75.2861 300° West 446 513 34,000  Level Miami Center
12:35PM 23.6050 -75.3986 302° West 446 513 34,000 120 Level Miami Center
12:36PM 23.6686 -75.5136 301° West 440 506 34,300 660 Climbing Miami Center
12:37PM 23.7322 -75.6286 301° West 440 506 35,400 840 Climbing Miami Center
12:38PM 23.7917 -75.7417 300° West 440 506 36,000 300 Climbing Miami Center
12:39PM 23.8531 -75.8592 300° West 440 506 36,000  Level Miami Center
12:40PM 23.9144 -75.9722 301° West 440 506 36,000 -60 Level Miami Center
12:41PM 23.9758 -76.0878 300° West 440 506 35,900  Descending Miami Center
12:42PM 24.0369 -76.2058 300° West 440 506 36,000  Climbing Miami Center
12:43PM 24.0981 -76.3194 301° West 440 506 36,000  Level Miami Center
12:44PM 24.1611 -76.4353 301° West 440 506 36,000  Level Miami Center
12:45PM 24.2200 -76.5467 300° West 435 501 36,000  Level Miami Center
12:46PM 24.2850 -76.6672 301° West 430 495 36,000  Level Miami Center
12:47PM 24.3436 -76.7814 299° West 430 495 36,000  Level Miami Center
12:48PM 24.4061 -76.8953 301° West 435 501 36,000  Level Miami Center
12:49PM 24.4647 -77.0094 299° West 435 501 36,000  Level Miami Center
12:50PM 24.5231 -77.1239 299° West 435 501 36,000  Level Miami Center
12:51PM 24.5833 -77.2358 301° West 435 501 36,000  Level Miami Center
12:52PM 24.6417 -77.3506 299° West 435 501 36,000 240 Level Miami Center
12:58PM 24.9960 -78.0260 299° West 435 501 38,000 300 Climbing FlightAware
12:59PM 25.0330 -78.0980 300° West 442 509 38,000  Level FlightAware
12:59PM 25.0770 -78.1850 299° West 443 510 38,000  Level FlightAware
01:00PM 25.1140 -78.2610 298° West 443 510 38,000  Level FlightAware
01:01PM 25.1530 -78.3370 300° West 442 509 38,000  Level FlightAware
01:02PM 25.1870 -78.4080 298° West 442 509 38,000  Level FlightAware
01:02PM 25.2200 -78.4760 298° West 442 509 38,000 -1,620 Level FlightAware
01:03PM 25.3390 -78.5290 338° Northwest 36,200 -3,720 Descending FlightAware
01:03PM 25.3590 -78.5460 322° Northwest 460 529 36,100 -240 Descending FlightAware
01:04PM 25.4270 -78.6020 323° Northwest 462 532 36,000 -120 Descending FlightAware
01:04PM 25.5060 -78.6660 324° Northwest 463 533 36,000  Level FlightAware
01:05PM 25.5740 -78.7230 323° Northwest 462 532 36,000  Level FlightAware
01:06PM 25.6370 -78.7860 318° Northwest 456 525 36,000  Level FlightAware
01:06PM 25.6720 -78.8690 295° West 443 510 36,000  Level FlightAware
01:07PM 25.6890 -78.9780 280° West 438 504 36,000  Level FlightAware
01:08PM 25.6980 -79.0540 278° West 437 503 36,000  Level FlightAware
01:08PM 25.7130 -79.1620 279° West 433 498 36,000  Level FlightAware
01:09PM 25.7600 -79.2470 302° West 441 507 36,000  Level FlightAware
01:10PM 25.8260 -79.2910 329° Northwest 431 496 36,000  Level FlightAware
01:11PM 25.9130 -79.3030 353° North 458 527 36,000  Level FlightAware
01:11PM 26.0120 -79.3070 358° North 469 540 36,000  Level FlightAware
01:12PM 26.0920 -79.3110 357° North 464 534 36,000 -120 Level FlightAware
01:13PM 26.1900 -79.3160 357° North 467 537 35,900 -540 Descending FlightAware
01:13PM 26.2830 -79.3210 357° North 467 537 35,300 -900 Descending FlightAware
01:14PM 26.3610 -79.3250 357° North 467 537 34,700 -960 Descending FlightAware
01:15PM 26.4640 -79.3480 349° North 472 543 34,000 -540 Descending FlightAware
01:15PM 26.5430 -79.3680 347° North 463 533 34,000  Level FlightAware
01:16PM 26.6280 -79.3910 346° North 465 535 34,000  Level FlightAware
01:17PM 26.7210 -79.4160 346° North 461 531 34,000  Level FlightAware
01:18PM 26.8400 -79.4630 341° North 457 526 34,000  Level FlightAware
01:18PM 26.8990 -79.5090 325° Northwest 454 522 34,000  Level FlightAware
01:19PM 26.9720 -79.5890 316° Northwest 454 522 34,000  Level FlightAware
01:20PM 27.0300 -79.6630 311° West 455 524 34,000  Level FlightAware
01:21PM 27.0840 -79.7320 311° West 456 525 34,000  Level FlightAware
01:21PM 27.1510 -79.8170 312° West 458 527 34,000 -240 Level FlightAware
01:22PM 27.2050 -79.8860 311° West 457 526 33,700 -1,020 Descending FlightAware
01:23PM 27.2820 -79.9820 312° West 463 533 32,400 -1,560 Descending FlightAware
01:24PM 27.3470 -80.0650 311° West 461 531 30,800 -1,260 Descending FlightAware
01:24PM 27.3840 -80.1140 310° West 460 529 30,600 -180 Descending FlightAware
01:25PM 27.4280 -80.1710 311° West 460 529 30,600  Level FlightAware
01:26PM 27.4760 -80.2320 312° West 460 529 30,600  Level FlightAware
01:26PM 27.5300 -80.3030 311° West 460 529 30,600  Level FlightAware
01:27PM 27.5740 -80.3600 311° West 460 529 30,600  Level FlightAware
01:28PM 27.6310 -80.4340 311° West 460 529 30,600  Level FlightAware
01:28PM 27.6740 -80.4900 311° West 460 529 30,600  Level FlightAware
01:29PM 27.7300 -80.5620 311° West 460 529 30,600  Level FlightAware
01:30PM 27.7900 -80.6410 311° West 460 529 30,600  Level FlightAware
01:31PM 27.8480 -80.7160 311° West 460 529 30,600  Level FlightAware
01:32PM 27.8900 -80.7710 311° West 460 529 30,600  Level FlightAware
01:32PM 27.9480 -80.8460 311° West 460 529 30,600  Level FlightAware
01:33PM 27.9910 -80.9020 311° West 460 529 30,600  Level FlightAware
01:34PM 28.0640 -80.9980 311° West 460 529 30,600 -8,880 Level FlightAware
01:35PM 28.0570 -81.1530 267° West 341 392 10,700 -9,240 Descending FlightAware
01:36PM 28.1460 -81.1820 344° North 321 369 10,300 -300 Descending FlightAware
01:37PM 28.1910 -81.1980 343° North 321 369 10,300 -1,320 Level FlightAware
01:37PM 28.2500 -81.1833 343° North 286 329 8,900 -960 Descending Orlando TRACON
01:38PM 28.3333 -81.1833 360° North 290 334 8,900 -540 Level Orlando TRACON
01:39PM 28.4000 -81.1833 360° North 286 329 7,900 -1,620 Descending Orlando TRACON
01:40PM 28.4833 -81.1833 360° North 279 321 5,900 -840 Descending Orlando TRACON
01:46PM 28.5810 -81.3260 360° North 189 217 2,400 -600 Descending FlightAware
01:46PM 28.5770 -81.3270 192° South 184 212 2,300 -420 Descending FlightAware
01:47PM 28.5700 -81.3270 180° South 182 209 2,200 -420 Descending FlightAware
01:47PM 28.5580 -81.3280 184° South 182 209 2,000 -480 Descending FlightAware
01:48PM 28.5510 -81.3280 180° South 184 212 1,800 -300 Descending FlightAware
01:48PM 28.5250 -81.3280 180° South 184 212 1,700 -180 Descending FlightAware